Time;durP1;ratioP1;P1;durP2;ratioP2;P2;SDS_P1;SDS_P2;PMS_P1;PMS_P2;Temp;Humidity;BMP_temperature;BMP_pressure;BME280_temperature;BME280_humidity;BME280_pressure;Samples;Min_cycle;Max_cycle;Signal;HPM_P1;HPM_P2
2022/08/23 00:00:33;;;;;;;10.05;5.85;;;;;;;17.57;76.95;101314.53;5032830;28;20068;-74
2022/08/23 00:02:58;;;;;;;14.15;6.30;;;;;;;17.55;77.10;101310.16;5032747;28;20033;-74
2022/08/23 00:05:24;;;;;;;13.25;5.93;;;;;;;17.50;77.35;101304.25;5030605;28;20487;-73
2022/08/23 00:07:49;;;;;;;9.18;5.43;;;;;;;17.48;77.67;101311.38;5033122;28;20040;-74
2022/08/23 00:10:15;;;;;;;9.70;5.70;;;;;;;17.49;77.07;101306.94;5032318;28;20021;-73
2022/08/23 00:12:42;;;;;;;13.82;5.85;;;;;;;17.39;77.92;101303.00;5029349;28;20032;-74
2022/08/23 00:15:10;;;;;;;10.60;5.97;;;;;;;17.37;77.40;101311.00;5031974;28;20091;-74
2022/08/23 00:17:36;;;;;;;7.72;5.68;;;;;;;17.37;78.40;101310.16;5032088;28;20104;-74
2022/08/23 00:20:05;;;;;;;14.80;5.95;;;;;;;17.37;79.11;101311.00;5032979;28;20494;-74
2022/08/23 00:22:30;;;;;;;11.07;5.95;;;;;;;17.29;79.18;101306.06;5030177;28;20025;-73
2022/08/23 00:24:56;;;;;;;14.05;6.03;;;;;;;17.25;79.45;101307.13;5032038;28;20378;-74
2022/08/23 00:27:21;;;;;;;9.75;5.47;;;;;;;17.21;79.31;101310.81;5032353;28;20072;-73
2022/08/23 00:29:52;;;;;;;9.43;5.50;;;;;;;17.24;79.33;101312.47;5032995;28;20029;-73
2022/08/23 00:32:24;;;;;;;11.38;6.20;;;;;;;17.22;79.63;101303.75;5031193;28;20021;-74
2022/08/23 00:34:49;;;;;;;8.95;6.85;;;;;;;17.12;80.71;101305.09;5032667;28;20377;-74
2022/08/23 00:37:17;;;;;;;12.50;7.13;;;;;;;17.01;80.30;101306.41;5032778;28;20025;-73
2022/08/23 00:39:43;;;;;;;10.82;6.55;;;;;;;16.91;81.76;101306.88;5031978;28;20111;-73
2022/08/23 00:47:44;;;;;;;9.85;6.45;;;;;;;16.88;85.28;101301.75;5032203;28;20415;-73
2022/08/23 00:50:24;;;;;;;11.32;6.15;;;;;;;16.91;84.30;101315.63;5032502;28;20021;-73
2022/08/23 00:53:04;;;;;;;12.70;5.85;;;;;;;16.85;85.66;101303.56;5029728;28;20048;-73
2022/08/23 00:55:32;;;;;;;11.88;5.90;;;;;;;16.84;85.09;101303.66;5032466;28;20045;-73
2022/08/23 00:57:58;;;;;;;8.88;5.80;;;;;;;16.79;85.51;101303.81;5032713;28;20033;-73
2022/08/23 01:00:24;;;;;;;11.55;6.95;;;;;;;16.74;85.64;101305.78;5030791;28;20408;-73
2022/08/23 01:02:51;;;;;;;8.77;5.85;;;;;;;16.65;85.93;101315.84;5031024;28;20025;-73
2022/08/23 01:05:16;;;;;;;11.35;6.55;;;;;;;16.65;85.78;101318.47;5031110;28;20496;-73
2022/08/23 01:07:47;;;;;;;11.73;5.82;;;;;;;16.63;85.81;101319.38;5031845;28;20029;-73
2022/08/23 01:10:26;;;;;;;10.65;6.03;;;;;;;16.65;85.20;101316.69;5030616;28;20033;-74
2022/08/23 01:12:58;;;;;;;9.23;5.97;;;;;;;16.65;85.50;101313.22;5031651;28;20382;-74
2022/08/23 01:15:34;;;;;;;13.70;6.32;;;;;;;16.56;85.17;101296.84;5031329;28;20025;-73
2022/08/23 01:18:08;;;;;;;11.68;6.55;;;;;;;16.56;85.78;101317.91;5031087;28;20025;-74
2022/08/23 01:20:39;;;;;;;10.65;6.00;;;;;;;16.53;86.00;101315.41;5031551;28;20017;-73
2022/08/23 01:23:17;;;;;;;12.60;6.35;;;;;;;16.42;85.77;101312.38;5030045;28;20022;-73
2022/08/23 01:25:42;;;;;;;8.82;5.97;;;;;;;16.46;86.77;101316.56;5032373;28;20465;-73
2022/08/23 01:28:08;;;;;;;8.85;5.93;;;;;;;16.45;86.76;101317.50;5032741;28;20044;-73
2022/08/23 01:30:34;;;;;;;9.70;6.00;;;;;;;16.36;87.18;101325.75;5035556;28;20030;-73
2022/08/23 01:33:03;;;;;;;10.48;6.22;;;;;;;16.29;87.79;101329.56;5035148;28;20432;-73
2022/08/23 01:35:37;;;;;;;13.80;6.45;;;;;;;16.35;88.36;101329.31;5034920;28;20022;-73
2022/08/23 01:38:04;;;;;;;13.32;5.70;;;;;;;16.34;88.55;101330.22;5034786;28;20021;-73
2022/08/23 01:40:30;;;;;;;15.07;5.90;;;;;;;16.26;87.78;101327.91;5035788;28;20033;-73
2022/08/23 01:42:55;;;;;;;8.45;5.53;;;;;;;16.23;87.84;101335.06;5033068;28;20072;-73
2022/08/23 01:45:21;;;;;;;15.02;6.10;;;;;;;16.20;87.84;101330.78;5035226;28;20514;-73
2022/08/23 01:47:46;;;;;;;15.95;6.55;;;;;;;16.23;86.87;101327.16;5035866;28;20033;-73
2022/08/23 01:50:12;;;;;;;17.25;6.72;;;;;;;16.18;86.20;101332.59;5033974;28;20112;-73
2022/08/23 01:52:40;;;;;;;18.10;7.10;;;;;;;16.22;86.41;101335.94;5032904;28;20053;-73
2022/08/23 01:55:06;;;;;;;21.17;7.15;;;;;;;16.24;86.33;101332.34;5035567;28;20493;-73
2022/08/23 01:57:33;;;;;;;17.02;7.13;;;;;;;16.22;86.00;101326.31;5034415;28;20355;-73
2022/08/23 01:59:59;;;;;;;10.75;6.72;;;;;;;16.25;86.30;101326.19;5035585;28;20083;-73
2022/08/23 02:02:24;;;;;;;19.15;7.85;;;;;;;16.23;85.78;101325.38;5033430;28;20466;-73
2022/08/23 02:04:50;;;;;;;16.58;6.70;;;;;;;16.23;85.94;101321.91;5033936;28;20022;-73
2022/08/23 02:07:15;;;;;;;11.48;6.53;;;;;;;16.27;86.28;101328.75;5034944;28;20492;-73
2022/08/23 02:09:41;;;;;;;10.80;7.10;;;;;;;16.33;85.99;101329.38;5035347;28;20503;-73
2022/08/23 02:12:06;;;;;;;11.63;6.65;;;;;;;16.33;85.90;101325.88;5033698;28;20035;-73
2022/08/23 02:14:31;;;;;;;16.05;7.82;;;;;;;16.35;85.75;101330.16;5033918;28;20469;-73
2022/08/23 02:16:57;;;;;;;14.43;8.35;;;;;;;16.31;84.71;101331.19;5034427;28;20030;-73
2022/08/23 02:19:23;;;;;;;15.05;8.38;;;;;;;16.35;85.17;101334.59;5034832;28;20025;-73
2022/08/23 02:21:49;;;;;;;18.23;7.30;;;;;;;16.37;85.33;101330.94;5035021;28;20115;-74
2022/08/23 02:24:17;;;;;;;18.80;8.68;;;;;;;16.47;85.21;101330.59;5031388;28;20060;-73
2022/08/23 02:26:46;;;;;;;16.10;7.47;;;;;;;16.47;84.75;101322.69;5035185;28;20035;-73
2022/08/23 02:29:13;;;;;;;14.52;7.45;;;;;;;16.47;84.86;101331.44;5034981;28;20436;-73
2022/08/23 02:31:39;;;;;;;14.25;7.88;;;;;;;16.51;85.74;101319.00;5033800;28;20377;-74
2022/08/23 02:34:04;;;;;;;14.27;8.35;;;;;;;16.44;85.77;101317.53;5033539;28;20121;-73
2022/08/23 02:36:31;;;;;;;13.00;8.82;;;;;;;16.49;85.99;101323.50;5034293;28;20028;-73
2022/08/23 02:38:57;;;;;;;12.73;8.05;;;;;;;16.49;85.52;101326.97;5033839;28;20034;-73
2022/08/23 02:41:22;;;;;;;10.88;8.23;;;;;;;16.52;85.24;101329.50;5034409;28;20128;-73
2022/08/23 02:43:53;;;;;;;13.85;7.80;;;;;;;16.51;85.45;101319.88;5031673;28;20517;-74
2022/08/23 02:46:20;;;;;;;12.70;8.30;;;;;;;16.47;84.93;101310.38;5032735;28;20088;-73
2022/08/23 02:48:45;;;;;;;12.45;8.20;;;;;;;16.50;84.76;101325.19;5034615;28;20025;-73
2022/08/23 02:51:11;;;;;;;12.98;8.07;;;;;;;16.51;84.97;101327.78;5034466;28;20474;-73
2022/08/23 02:53:36;;;;;;;12.00;8.45;;;;;;;16.43;85.71;101318.47;5031122;28;20091;-73
2022/08/23 02:56:02;;;;;;;12.95;8.40;;;;;;;16.42;86.04;101329.94;5033044;28;20021;-73
2022/08/23 02:58:28;;;;;;;13.23;8.13;;;;;;;16.36;86.13;101331.03;5034226;28;20359;-73
2022/08/23 03:00:53;;;;;;;13.02;8.15;;;;;;;16.37;86.06;101338.00;5033654;28;20036;-73
2022/08/23 03:03:20;;;;;;;16.95;8.23;;;;;;;16.40;86.04;101332.59;5032254;28;20104;-73
2022/08/23 03:05:46;;;;;;;14.00;8.48;;;;;;;16.42;86.23;101340.47;5031864;28;20029;-74
2022/08/23 03:08:12;;;;;;;13.10;8.35;;;;;;;16.42;85.92;101343.94;5032692;28;20084;-74
2022/08/23 03:10:42;;;;;;;12.02;7.75;;;;;;;16.44;86.50;101341.22;5033869;28;20544;-73
2022/08/23 03:13:07;;;;;;;10.57;7.95;;;;;;;16.41;86.77;101336.94;5031641;28;20401;-74
2022/08/23 03:15:32;;;;;;;13.65;8.32;;;;;;;16.44;87.60;101338.59;5033239;28;20021;-73
2022/08/23 03:17:58;;;;;;;9.82;7.97;;;;;;;16.36;87.00;101331.03;5033311;28;20034;-73
2022/08/23 03:20:23;;;;;;;11.00;8.00;;;;;;;16.38;87.69;101330.06;5032721;28;20527;-73
2022/08/23 03:22:48;;;;;;;13.20;8.57;;;;;;;16.39;87.81;101336.16;5032733;28;20025;-73
2022/08/23 03:25:13;;;;;;;12.73;8.13;;;;;;;16.41;88.09;101344.84;5033947;28;20451;-73
2022/08/23 03:27:39;;;;;;;9.23;7.82;;;;;;;16.43;88.16;101339.53;5031853;28;20033;-73
2022/08/23 03:30:06;;;;;;;11.35;7.68;;;;;;;16.43;88.09;101343.00;5033907;28;20026;-73
2022/08/23 03:32:31;;;;;;;12.88;8.55;;;;;;;16.47;88.12;101347.22;5032082;28;20032;-73
2022/08/23 03:34:57;;;;;;;12.77;7.72;;;;;;;16.49;87.50;101347.19;5032879;28;20026;-73
2022/08/23 03:37:22;;;;;;;14.82;8.77;;;;;;;16.52;87.55;101350.53;5033553;28;20029;-73
2022/08/23 03:39:48;;;;;;;15.27;8.27;;;;;;;16.56;87.39;101353.91;5032415;28;20029;-74
2022/08/23 03:42:13;;;;;;;13.15;8.18;;;;;;;16.54;88.57;101346.06;5030509;28;20029;-73
2022/08/23 03:44:39;;;;;;;12.45;7.60;;;;;;;16.54;nan;101347.84;5032520;28;20057;-73
2022/08/23 03:47:07;;;;;;;15.60;8.88;;;;;;;16.57;87.58;101348.56;5033337;28;20041;-74
2022/08/23 03:49:32;;;;;;;14.52;7.88;;;;;;;16.56;87.49;101349.50;5030467;28;20197;-73
2022/08/23 03:51:59;;;;;;;15.70;8.52;;;;;;;16.54;87.00;101348.69;5031364;28;20490;-73
2022/08/23 03:54:25;;;;;;;11.02;7.80;;;;;;;16.51;88.02;101354.09;5033095;28;20045;-73
2022/08/23 03:56:59;;;;;;;12.88;8.07;;;;;;;16.49;87.76;101355.06;5031794;28;20043;-73
2022/08/23 03:59:24;;;;;;;;;;;;;;;16.53;85.39;101357.50;5032797;28;20034;-73
2022/08/23 04:01:49;;;;;;;10.63;7.57;;;;;;;16.47;87.20;101359.53;5032546;28;19975;-73
2022/08/23 04:04:15;;;;;;;13.75;9.02;;;;;;;16.44;87.21;101354.38;5032660;28;20456;-73
2022/08/23 04:06:41;;;;;;;14.25;8.77;;;;;;;16.42;86.79;101359.72;5033215;28;20035;-73
2022/08/23 04:09:06;;;;;;;10.63;7.22;;;;;;;16.42;87.07;101362.38;5032152;28;20504;-73
2022/08/23 04:11:31;;;;;;;10.68;8.10;;;;;;;16.43;87.56;101364.06;5029490;28;20064;-73
2022/08/23 04:13:57;;;;;;;12.65;8.73;;;;;;;16.42;88.63;101359.72;5033118;28;20029;-73
2022/08/23 04:16:22;;;;;;;12.98;8.77;;;;;;;16.41;87.84;101371.16;5031961;28;20032;-73
2022/08/23 04:18:48;;;;;;;14.98;9.93;;;;;;;16.38;87.75;101364.25;5032497;28;20100;-73
2022/08/23 04:21:17;;;;;;;12.68;8.88;;;;;;;16.40;89.03;101374.72;5032305;28;20463;-73
2022/08/23 04:23:43;;;;;;;18.38;9.60;;;;;;;16.37;88.58;101359.03;5032039;28;20108;-73
2022/08/23 04:26:09;;;;;;;15.02;9.05;;;;;;;16.36;88.50;101368.72;5032740;28;20018;-73
2022/08/23 04:28:35;;;;;;;15.27;9.70;;;;;;;16.37;89.22;101364.31;5032529;28;20067;-73
2022/08/23 04:31:02;;;;;;;10.88;8.90;;;;;;;16.39;89.08;101378.25;5030223;28;20033;-73
2022/08/23 04:33:30;;;;;;;14.25;9.85;;;;;;;16.37;88.70;101372.19;5030880;28;20026;-73
2022/08/23 04:35:56;;;;;;;14.35;8.52;;;;;;;16.41;88.40;101379.03;5032853;28;20394;-73
2022/08/23 04:38:22;;;;;;;16.67;9.15;;;;;;;16.43;87.63;101376.38;5031622;28;20531;-73
2022/08/23 04:43:31;;;;;;;;;;;;;;;16.52;86.00;101379.50;5031324;28;20091;-73
2022/08/23 04:45:56;;;;;;;14.20;8.90;;;;;;;16.49;87.21;101378.75;5031569;28;19921;-73
2022/08/23 04:48:22;;;;;;;13.32;9.30;;;;;;;16.50;86.75;101381.31;5032566;28;20025;-73
2022/08/23 04:50:47;;;;;;;15.60;9.20;;;;;;;16.50;87.17;101381.31;5031906;28;20139;-73
2022/08/23 04:53:14;;;;;;;18.35;10.30;;;;;;;16.51;87.44;101390.06;5029489;28;20045;-73
2022/08/23 04:55:40;;;;;;;13.75;9.80;;;;;;;16.54;86.75;101387.31;5032272;28;20469;-73
2022/08/23 04:58:06;;;;;;;14.13;9.60;;;;;;;16.58;86.76;101395.06;5032561;28;20025;-73
2022/08/23 05:00:31;;;;;;;13.35;9.25;;;;;;;16.62;88.22;101396.63;5031652;28;20453;-73
2022/08/23 05:02:56;;;;;;;12.18;8.88;;;;;;;16.70;87.50;101403.38;5035492;28;20099;-73
2022/08/23 05:05:22;;;;;;;15.30;9.35;;;;;;;16.67;87.41;101391.16;5035620;28;20045;-73
2022/08/23 05:07:47;;;;;;;13.35;9.98;;;;;;;16.75;87.42;101393.56;5035779;28;20029;-73
2022/08/23 05:10:14;;;;;;;14.07;9.88;;;;;;;16.74;86.92;101397.94;5036557;28;20469;-73
2022/08/23 05:12:39;;;;;;;15.63;10.30;;;;;;;16.76;86.66;101398.75;5033707;28;20037;-73
2022/08/23 05:15:06;;;;;;;16.73;10.18;;;;;;;16.80;86.74;101399.47;5035480;28;20072;-73
2022/08/23 05:17:31;;;;;;;16.65;10.90;;;;;;;16.82;86.27;101402.91;5035936;28;20027;-73
2022/08/23 05:19:56;;;;;;;17.25;10.07;;;;;;;16.84;87.55;101387.91;5035625;28;20083;-73
2022/08/23 05:22:21;;;;;;;16.00;10.00;;;;;;;16.94;87.47;101402.41;5034522;28;20040;-73
2022/08/23 05:24:47;;;;;;;14.07;10.13;;;;;;;16.99;87.63;101400.44;5036085;28;20049;-73
2022/08/23 05:27:12;;;;;;;11.95;9.02;;;;;;;17.02;88.01;101402.94;5033388;28;20457;-73
2022/08/23 05:29:38;;;;;;;15.82;9.65;;;;;;;17.08;87.00;101400.06;5035480;28;20029;-73
2022/08/23 05:32:03;;;;;;;14.10;8.90;;;;;;;17.13;87.64;101391.09;5033740;28;20148;-73
2022/08/23 05:34:29;;;;;;;18.45;9.77;;;;;;;17.23;88.14;101406.47;5035032;28;20380;-73
2022/08/23 05:36:54;;;;;;;14.88;9.02;;;;;;;17.29;87.33;101403.56;5035879;28;20053;-73
2022/08/23 05:39:20;;;;;;;12.77;9.25;;;;;;;17.34;88.25;101408.66;5034382;28;20034;-73
2022/08/23 05:41:45;;;;;;;15.05;9.27;;;;;;;17.46;88.26;101415.16;5032963;28;20025;-73
2022/08/23 05:44:11;;;;;;;17.95;9.90;;;;;;;17.54;85.29;101424.44;5035756;28;20046;-74
2022/08/23 05:46:37;;;;;;;13.48;8.07;;;;;;;17.60;86.86;101425.13;5035565;28;20034;-73
2022/08/23 05:49:03;;;;;;;17.85;8.93;;;;;;;17.68;86.08;101437.03;5035232;28;20044;-73
2022/08/23 05:51:31;;;;;;;11.55;9.02;;;;;;;17.77;85.36;101433.19;5033801;28;20469;-74
2022/08/23 05:53:59;;;;;;;16.25;9.73;;;;;;;17.78;84.56;101432.25;5034703;28;20095;-73
2022/08/23 05:56:36;;;;;;;18.50;9.75;;;;;;;17.86;86.91;101427.50;5034259;28;20029;-73
2022/08/23 05:59:07;;;;;;;17.27;9.23;;;;;;;17.94;85.81;101435.91;5035980;28;20481;-73
2022/08/23 06:01:33;;;;;;;14.68;9.68;;;;;;;17.98;85.67;101431.34;5033135;28;20025;-73
2022/08/23 06:04:00;;;;;;;16.23;9.55;;;;;;;18.00;85.48;101437.44;5034657;28;20086;-73
2022/08/23 06:06:26;;;;;;;14.45;9.15;;;;;;;18.04;85.11;101441.63;5035082;28;20025;-73
2022/08/23 06:08:51;;;;;;;17.65;10.07;;;;;;;18.05;85.64;101445.13;5035174;28;20025;-73
2022/08/23 06:11:28;;;;;;;13.50;8.98;;;;;;;18.02;85.58;101440.88;5032469;28;20095;-73
2022/08/23 06:13:57;;;;;;;16.55;9.18;;;;;;;18.01;86.51;101442.63;5034618;28;20172;-74
2022/08/23 06:16:25;;;;;;;17.33;9.40;;;;;;;17.97;86.98;101435.78;5034204;28;20036;-73
2022/08/23 06:18:52;;;;;;;21.63;10.63;;;;;;;17.93;87.13;101442.13;5035128;28;20034;-73
2022/08/23 06:21:17;;;;;;;16.83;11.05;;;;;;;17.89;86.59;101442.34;5031760;28;20025;-73
2022/08/23 06:23:45;;;;;;;16.13;11.15;;;;;;;17.90;85.35;101451.94;5033608;28;20079;-73
2022/08/23 06:26:17;;;;;;;16.27;10.30;;;;;;;17.95;86.57;101464.03;5033263;28;20032;-73
2022/08/23 06:28:45;;;;;;;19.15;10.18;;;;;;;18.08;86.50;101455.53;5034997;28;20489;-73
2022/08/23 06:31:10;;;;;;;14.95;11.20;;;;;;;18.23;83.83;101454.84;5034006;28;20091;-73
2022/08/23 06:33:37;;;;;;;15.40;10.02;;;;;;;18.27;84.86;101448.50;5033518;28;20109;-73
2022/08/23 06:36:04;;;;;;;15.10;10.30;;;;;;;18.28;84.98;101446.72;5034812;28;20500;-73
2022/08/23 06:38:30;;;;;;;19.63;11.80;;;;;;;18.30;82.57;101448.34;5032474;28;20029;-73
2022/08/23 06:41:05;;;;;;;17.30;11.55;;;;;;;18.33;82.37;101456.13;5034654;28;20484;-73
2022/08/23 06:43:31;;;;;;;14.40;11.45;;;;;;;18.40;82.51;101452.28;5022334;28;20108;-73
2022/08/23 06:46:27;;;;;;;18.73;11.50;;;;;;;18.48;81.94;101449.31;5032546;28;20049;-73
2022/08/23 06:48:53;;;;;;;17.15;11.60;;;;;;;18.47;80.95;101435.25;5007717;28;20030;-73
2022/08/23 06:51:25;;;;;;;16.30;12.50;;;;;;;18.60;78.75;101451.34;5020400;28;20581;-73
2022/08/23 06:53:53;;;;;;;16.90;11.18;;;;;;;18.62;80.16;101452.13;5014884;28;20022;-73
2022/08/23 06:56:20;;;;;;;15.43;12.25;;;;;;;18.64;78.58;101444.16;5014423;28;20029;-73
2022/08/23 06:58:46;;;;;;;18.30;13.25;;;;;;;18.65;80.13;101436.16;5013817;28;20378;-73
2022/08/23 07:01:50;;;;;;;17.90;12.85;;;;;;;18.78;79.65;101447.03;5025006;28;20021;-74
2022/08/23 07:04:17;;;;;;;;;;;;;;;18.87;79.75;101445.72;5033976;28;20029;-73
2022/08/23 07:06:43;;;;;;;19.27;13.50;;;;;;;18.92;78.94;101449.84;5031093;28;20415;-73
2022/08/23 07:09:08;;;;;;;22.90;13.80;;;;;;;18.99;78.15;101454.81;5033436;28;20029;-73
2022/08/23 07:11:34;;;;;;;18.98;12.70;;;;;;;19.05;75.66;101449.25;5033844;28;20029;-75
2022/08/23 07:14:01;;;;;;;21.58;14.55;;;;;;;19.18;80.11;101458.28;5031216;28;20108;-75
2022/08/23 07:16:58;;;;;;;22.27;13.45;;;;;;;19.25;76.82;101450.91;5033864;28;20074;-75
2022/08/23 07:19:26;;;;;;;20.27;13.73;;;;;;;19.27;75.49;101455.19;5031884;28;20045;-75
2022/08/23 07:21:52;;;;;;;18.73;13.73;;;;;;;19.36;74.95;101461.81;5034021;28;20032;-75
2022/08/23 07:24:19;;;;;;;25.98;15.23;;;;;;;19.42;72.73;101461.47;5031993;28;20477;-76
2022/08/23 07:26:45;;;;;;;23.38;14.13;;;;;;;19.49;74.53;101454.97;5032741;28;20033;-75
2022/08/23 07:29:12;;;;;;;21.20;14.95;;;;;;;19.55;73.94;101459.91;5031897;28;20381;-77
2022/08/23 07:31:41;;;;;;;23.30;15.32;;;;;;;19.58;74.24;101458.91;5032661;28;20110;-75
2022/08/23 07:34:07;;;;;;;19.67;12.65;;;;;;;19.71;74.03;101467.94;5031727;28;20034;-75
2022/08/23 07:36:37;;;;;;;22.50;15.07;;;;;;;19.84;74.13;101470.81;5033298;28;20025;-75
2022/08/23 07:39:05;;;;;;;21.02;14.85;;;;;;;19.95;72.85;101480.84;5030899;28;20025;-75
2022/08/23 07:41:30;;;;;;;18.23;14.15;;;;;;;19.99;73.90;101472.66;5031888;28;20041;-75
2022/08/23 07:43:58;;;;;;;22.15;15.88;;;;;;;20.07;72.58;101473.09;5033286;28;20026;-76
2022/08/23 07:46:24;;;;;;;20.27;13.57;;;;;;;20.19;71.03;101482.19;5031278;28;20029;-75
2022/08/23 07:48:50;;;;;;;19.67;14.18;;;;;;;20.28;72.94;101481.69;5031729;28;20034;-76
2022/08/23 07:51:16;;;;;;;24.10;15.10;;;;;;;20.38;71.38;101487.34;5033298;28;20032;-76
2022/08/23 07:53:41;;;;;;;26.15;16.27;;;;;;;20.51;71.07;101487.56;5033525;28;20389;-75
2022/08/23 07:56:09;;;;;;;20.15;13.52;;;;;;;20.61;71.25;101480.81;5032709;28;20426;-76
2022/08/23 07:58:34;;;;;;;24.95;13.73;;;;;;;20.70;72.03;101475.00;5031115;28;20504;-75
2022/08/23 08:01:15;;;;;;;22.27;14.73;;;;;;;20.74;70.64;101481.00;5030665;28;20018;-75
2022/08/23 08:03:42;;;;;;;22.95;13.50;;;;;;;20.85;69.99;101480.38;5030898;28;20026;-75
2022/08/23 08:06:17;;;;;;;24.95;13.65;;;;;;;20.97;70.04;101483.19;5032362;28;20037;-76
2022/08/23 08:08:43;;;;;;;20.67;13.00;;;;;;;21.04;69.88;101486.34;5031161;28;20441;-76
2022/08/23 08:11:10;;;;;;;21.35;14.20;;;;;;;21.21;68.52;101480.91;5032789;28;20466;-75
2022/08/23 08:13:40;;;;;;;19.40;13.48;;;;;;;21.33;68.96;101491.78;5032926;28;20037;-75
2022/08/23 08:16:07;;;;;;;29.63;14.20;;;;;;;21.27;68.42;101498.28;5031525;28;20033;-74
2022/08/23 08:18:33;;;;;;;18.13;13.10;;;;;;;21.24;69.60;101494.00;5031700;28;20461;-75
2022/08/23 08:20:59;;;;;;;18.08;12.63;;;;;;;21.30;70.15;101497.25;5029555;28;20099;-74
2022/08/23 08:23:28;;;;;;;26.20;12.73;;;;;;;21.33;69.62;101495.28;5029509;28;20477;-74
2022/08/23 08:26:04;;;;;;;22.95;13.68;;;;;;;21.45;68.78;101499.03;5033116;28;20022;-75
2022/08/23 08:28:30;;;;;;;21.42;13.30;;;;;;;21.76;68.60;101491.91;5031550;28;20029;-74
2022/08/23 08:30:57;;;;;;;22.27;13.40;;;;;;;21.94;68.87;101494.31;5030871;28;20033;-74
2022/08/23 08:33:23;;;;;;;21.85;14.55;;;;;;;22.02;65.40;101491.19;5030268;28;20029;-75
2022/08/23 08:35:49;;;;;;;23.27;13.18;;;;;;;22.19;66.56;101498.13;5028914;28;20025;-75
2022/08/23 08:38:14;;;;;;;21.48;13.60;;;;;;;22.26;66.99;101482.69;5031173;28;20035;-75
2022/08/23 08:40:40;;;;;;;23.38;12.30;;;;;;;22.47;65.59;101501.75;5031764;28;20029;-75
2022/08/23 08:43:33;;;;;;;28.67;12.82;;;;;;;22.55;65.64;101504.75;5032821;28;20025;-75
2022/08/23 08:46:12;;;;;;;23.17;13.68;;;;;;;22.57;64.01;101503.72;5031103;28;20044;-75
2022/08/23 08:48:46;;;;;;;15.45;11.20;;;;;;;22.71;64.92;101502.81;5029187;28;20045;-75
2022/08/23 08:52:04;;;;;;;19.05;11.52;;;;;;;22.89;64.54;101495.50;5032026;28;20032;-75
2022/08/23 08:54:31;;;;;;;15.52;8.73;;;;;;;23.15;61.80;101504.44;5011078;28;20048;-75
2022/08/23 08:57:00;;;;;;;15.63;8.20;;;;;;;23.26;60.03;101509.06;5030429;28;20033;-75
2022/08/23 08:59:53;;;;;;;15.75;8.80;;;;;;;23.33;60.84;101513.00;5031836;28;20025;-75
2022/08/23 09:02:21;;;;;;;18.02;8.43;;;;;;;23.52;58.65;101507.31;5028629;28;20103;-75
2022/08/23 09:04:46;;;;;;;16.15;6.80;;;;;;;23.77;59.49;101510.06;5014210;28;20489;-73
2022/08/23 09:07:30;;;;;;;10.95;6.53;;;;;;;23.89;59.62;101511.00;5028419;28;20041;-72
2022/08/23 09:10:22;;;;;;;14.05;8.95;;;;;;;23.85;59.97;101509.50;5030281;28;20025;-72
2022/08/23 09:12:59;;;;;;;13.68;7.30;;;;;;;23.94;59.84;101506.22;5029687;28;20021;-73
2022/08/23 09:15:38;;;;;;;14.40;6.97;;;;;;;23.99;59.46;101513.88;5030318;28;20021;-73
2022/08/23 09:18:12;;;;;;;16.85;6.72;;;;;;;24.10;58.54;101518.44;5029982;28;20421;-73
2022/08/23 09:20:40;;;;;;;15.85;5.80;;;;;;;24.23;57.87;101514.84;5028705;28;20036;-73
2022/08/23 09:23:18;;;;;;;13.05;7.70;;;;;;;24.47;55.91;101514.94;5030514;28;20036;-73
2022/08/23 09:25:54;;;;;;;14.00;6.30;;;;;;;24.64;57.73;101513.72;5016828;28;20497;-73
2022/08/23 09:28:19;;;;;;;12.25;5.65;;;;;;;24.81;53.82;101507.16;5011496;28;20080;-73
2022/08/23 09:30:55;;;;;;;12.57;6.00;;;;;;;24.93;56.36;101521.44;5011754;28;20018;-73
2022/08/23 09:33:35;;;;;;;8.88;4.30;;;;;;;25.04;55.15;101525.97;5010665;28;20069;-73
2022/08/23 09:36:24;;;;;;;11.02;4.63;;;;;;;25.20;53.56;101521.22;5011560;28;20470;-73
2022/08/23 09:38:55;;;;;;;9.52;4.85;;;;;;;25.25;55.07;101513.75;5026435;28;20053;-74
2022/08/23 09:41:35;;;;;;;8.50;4.47;;;;;;;25.28;54.20;101517.97;5028850;28;20450;-74
2022/08/23 09:44:02;;;;;;;7.10;4.65;;;;;;;25.36;52.46;101512.94;5026534;28;20028;-73
2022/08/23 09:46:32;;;;;;;8.25;4.32;;;;;;;25.38;53.19;101509.19;5029846;28;20105;-73
2022/08/23 09:48:59;;;;;;;12.98;4.70;;;;;;;25.42;52.86;101516.00;5031005;28;20033;-73
2022/08/23 09:51:34;;;;;;;8.18;4.38;;;;;;;25.51;54.13;101516.28;5033190;28;20089;-73
2022/08/23 09:54:26;;;;;;;11.18;4.45;;;;;;;25.54;53.35;101516.00;5029623;28;20025;-73
2022/08/23 09:56:56;;;;;;;14.63;4.55;;;;;;;25.52;50.50;101510.81;5033464;28;20120;-73
2022/08/23 09:59:42;;;;;;;10.43;4.45;;;;;;;25.60;52.42;101513.72;5033270;28;20017;-74
2022/08/23 10:02:25;;;;;;;10.23;4.10;;;;;;;25.66;53.29;101507.91;5031466;28;20144;-73
2022/08/23 10:04:55;;;;;;;8.02;3.83;;;;;;;25.84;53.58;101499.50;5030841;28;20442;-74
2022/08/23 10:07:42;;;;;;;11.15;5.10;;;;;;;25.90;53.28;101499.88;5032889;28;20473;-73
2022/08/23 10:10:19;;;;;;;9.43;4.10;;;;;;;25.93;51.07;101493.44;5032158;28;20428;-74
2022/08/23 10:12:45;;;;;;;10.27;3.67;;;;;;;25.96;50.16;101495.84;5030361;28;20120;-73
2022/08/23 10:15:13;;;;;;;7.88;4.15;;;;;;;26.02;50.40;101491.88;5017949;28;20137;-73
2022/08/23 10:17:55;;;;;;;10.85;3.78;;;;;;;26.16;50.35;101494.31;5014450;28;20025;-73
2022/08/23 10:20:39;;;;;;;8.77;3.83;;;;;;;26.19;50.69;101483.34;5029040;28;20021;-73
2022/08/23 10:23:32;;;;;;;9.60;3.60;;;;;;;26.26;49.80;101491.75;5032324;28;20551;-73
2022/08/23 10:25:59;;;;;;;12.20;3.42;;;;;;;26.41;50.11;101489.69;5018707;28;20485;-73
2022/08/23 10:31:33;;;;;;;11.13;4.18;;;;;;;26.53;51.04;101494.09;5020053;28;20037;-73
2022/08/23 10:34:26;;;;;;;7.45;3.50;;;;;;;26.61;49.92;101491.63;5022830;28;20088;-73
2022/08/23 10:37:22;;;;;;;8.55;3.65;;;;;;;26.78;49.75;101495.59;5033325;28;20166;-73
2022/08/23 10:39:59;;;;;;;6.57;2.80;;;;;;;26.79;48.23;101486.63;5015011;28;20034;-73
2022/08/23 10:42:38;;;;;;;8.52;3.55;;;;;;;26.94;46.89;101489.84;5040601;28;20026;-73
2022/08/23 10:45:22;;;;;;;6.18;2.60;;;;;;;27.01;46.06;101491.03;5033118;28;20033;-73
2022/08/23 10:47:57;;;;;;;8.57;2.70;;;;;;;27.08;46.15;101492.25;5032654;28;20068;-73
2022/08/23 10:50:26;;;;;;;5.63;2.33;;;;;;;27.22;44.89;101488.44;5031642;28;20099;-73
2022/08/23 10:53:14;;;;;;;4.88;2.97;;;;;;;27.35;46.47;101482.91;5034496;28;20036;-73
2022/08/23 10:56:01;;;;;;;7.78;2.55;;;;;;;27.54;46.20;101478.53;5034734;28;20037;-73
2022/08/23 10:58:29;;;;;;;10.23;2.83;;;;;;;27.72;44.56;101472.56;5033446;28;20055;-73
2022/08/23 11:00:56;;;;;;;5.38;2.65;;;;;;;27.77;42.47;101476.59;5034053;28;20022;-73
2022/08/23 11:03:27;;;;;;;6.15;2.70;;;;;;;27.85;43.85;101483.94;5034250;28;20072;-73
2022/08/23 11:06:28;;;;;;;5.50;2.78;;;;;;;27.97;45.79;101482.91;5033717;28;20100;-73
2022/08/23 11:09:17;;;;;;;5.07;2.63;;;;;;;28.14;45.34;101480.56;5026481;28;20485;-73
2022/08/23 11:11:49;;;;;;;6.90;2.88;;;;;;;28.17;43.58;101478.47;5027132;28;20489;-73
2022/08/23 11:14:39;;;;;;;7.03;2.80;;;;;;;28.39;45.20;101471.22;5034231;28;20060;-73
2022/08/23 11:17:22;;;;;;;7.43;2.95;;;;;;;28.50;43.98;101463.06;5033874;28;20382;-73
2022/08/23 11:19:55;;;;;;;6.45;3.15;;;;;;;28.22;45.17;101475.38;5019557;28;20058;-73
2022/08/23 11:22:32;;;;;;;6.53;2.80;;;;;;;28.40;44.79;101472.94;5013857;28;20048;-73
2022/08/23 11:25:23;;;;;;;7.75;3.10;;;;;;;28.77;44.41;101480.34;5014451;28;20038;-73
2022/08/23 11:27:49;;;;;;;7.18;3.00;;;;;;;28.93;42.36;101461.88;4991963;28;20558;-73
2022/08/23 11:30:32;;;;;;;6.88;2.90;;;;;;;29.16;43.11;101475.88;5033808;28;20037;-73
2022/08/23 11:33:33;;;;;;;6.32;2.70;;;;;;;29.32;42.02;101475.31;5031862;28;20030;-73
2022/08/23 11:36:07;;;;;;;5.00;2.35;;;;;;;29.57;41.84;101472.03;5030058;28;20481;-73
2022/08/23 11:38:42;;;;;;;9.60;2.95;;;;;;;29.48;41.67;101474.72;5033475;28;20060;-74
2022/08/23 11:41:17;;;;;;;4.68;2.30;;;;;;;29.46;41.29;101476.69;5042736;28;20075;-73